sensor_id;sensor_type;location;lat;lon;timestamp;temperature;humidity
25410;DHT22;13339;50.840;4.346;2023-04-25T00:00:03;10.80;99.90
25410;DHT22;13339;50.840;4.346;2023-04-25T00:02:32;10.90;99.90
25410;DHT22;13339;50.840;4.346;2023-04-25T00:05:00;11.10;99.90
25410;DHT22;13339;50.840;4.346;2023-04-25T00:07:27;11.20;99.90
25410;DHT22;13339;50.840;4.346;2023-04-25T00:09:52;11.20;99.90
25410;DHT22;13339;50.840;4.346;2023-04-25T00:12:18;11.10;99.90
25410;DHT22;13339;50.840;4.346;2023-04-25T00:14:44;10.80;99.90
25410;DHT22;13339;50.840;4.346;2023-04-25T00:17:10;10.80;99.90
25410;DHT22;13339;50.840;4.346;2023-04-25T00:19:36;11.00;99.90
25410;DHT22;13339;50.840;4.346;2023-04-25T00:22:04;11.10;99.90
25410;DHT22;13339;50.840;4.346;2023-04-25T00:24:31;11.00;99.90
25410;DHT22;13339;50.840;4.346;2023-04-25T00:26:56;11.20;99.90
25410;DHT22;13339;50.840;4.346;2023-04-25T00:29:22;11.00;99.90
25410;DHT22;13339;50.840;4.346;2023-04-25T00:31:47;11.10;99.90
25410;DHT22;13339;50.840;4.346;2023-04-25T00:34:13;11.10;99.90
25410;DHT22;13339;50.840;4.346;2023-04-25T00:36:38;11.00;99.90
25410;DHT22;13339;50.840;4.346;2023-04-25T00:39:04;10.90;99.90
25410;DHT22;13339;50.840;4.346;2023-04-25T00:41:30;11.00;99.90
25410;DHT22;13339;50.840;4.346;2023-04-25T00:43:56;11.00;99.90
25410;DHT22;13339;50.840;4.346;2023-04-25T00:46:23;10.80;99.90
25410;DHT22;13339;50.840;4.346;2023-04-25T00:48:48;10.90;99.90
25410;DHT22;13339;50.840;4.346;2023-04-25T00:51:18;11.00;99.90
25410;DHT22;13339;50.840;4.346;2023-04-25T00:53:45;11.00;99.90
25410;DHT22;13339;50.840;4.346;2023-04-25T00:56:10;11.20;99.90
25410;DHT22;13339;50.840;4.346;2023-04-25T00:58:37;11.30;99.90
25410;DHT22;13339;50.840;4.346;2023-04-25T01:01:03;11.50;99.90
25410;DHT22;13339;50.840;4.346;2023-04-25T01:03:32;11.40;99.90
25410;DHT22;13339;50.840;4.346;2023-04-25T01:05:58;11.00;99.90
25410;DHT22;13339;50.840;4.346;2023-04-25T01:08:24;10.90;99.90
25410;DHT22;13339;50.840;4.346;2023-04-25T01:10:52;10.90;99.90
25410;DHT22;13339;50.840;4.346;2023-04-25T01:13:18;11.00;99.90
25410;DHT22;13339;50.840;4.346;2023-04-25T01:15:45;11.00;99.90
25410;DHT22;13339;50.840;4.346;2023-04-25T01:18:11;11.10;99.90
25410;DHT22;13339;50.840;4.346;2023-04-25T01:20:37;11.10;99.90
25410;DHT22;13339;50.840;4.346;2023-04-25T01:23:04;11.30;99.90
25410;DHT22;13339;50.840;4.346;2023-04-25T01:25:30;11.40;99.90
25410;DHT22;13339;50.840;4.346;2023-04-25T01:27:57;11.50;99.90
25410;DHT22;13339;50.840;4.346;2023-04-25T01:30:23;11.50;99.90
25410;DHT22;13339;50.840;4.346;2023-04-25T01:32:49;11.50;99.90
25410;DHT22;13339;50.840;4.346;2023-04-25T01:35:15;11.30;99.90
25410;DHT22;13339;50.840;4.346;2023-04-25T01:37:42;11.30;99.90
25410;DHT22;13339;50.840;4.346;2023-04-25T01:40:09;11.00;99.90
25410;DHT22;13339;50.840;4.346;2023-04-25T01:42:39;11.10;99.90
25410;DHT22;13339;50.840;4.346;2023-04-25T01:45:06;11.10;99.90
25410;DHT22;13339;50.840;4.346;2023-04-25T01:47:33;11.10;99.90
25410;DHT22;13339;50.840;4.346;2023-04-25T01:50:01;11.00;99.90
25410;DHT22;13339;50.840;4.346;2023-04-25T01:52:26;11.20;99.90
25410;DHT22;13339;50.840;4.346;2023-04-25T01:54:53;11.20;99.90
25410;DHT22;13339;50.840;4.346;2023-04-25T01:57:19;10.90;99.90
25410;DHT22;13339;50.840;4.346;2023-04-25T01:59:45;10.70;99.90
25410;DHT22;13339;50.840;4.346;2023-04-25T02:02:11;10.80;99.90
25410;DHT22;13339;50.840;4.346;2023-04-25T02:04:37;10.90;99.90
25410;DHT22;13339;50.840;4.346;2023-04-25T02:07:03;10.80;99.90
25410;DHT22;13339;50.840;4.346;2023-04-25T02:09:29;10.60;99.90
25410;DHT22;13339;50.840;4.346;2023-04-25T02:11:55;10.70;99.90
25410;DHT22;13339;50.840;4.346;2023-04-25T02:14:20;10.70;99.90
25410;DHT22;13339;50.840;4.346;2023-04-25T02:16:47;10.60;99.90
25410;DHT22;13339;50.840;4.346;2023-04-25T02:19:12;10.60;99.90
25410;DHT22;13339;50.840;4.346;2023-04-25T02:21:38;10.40;99.90
25410;DHT22;13339;50.840;4.346;2023-04-25T02:24:04;10.10;99.90
25410;DHT22;13339;50.840;4.346;2023-04-25T02:26:30;10.10;99.90
25410;DHT22;13339;50.840;4.346;2023-04-25T02:28:56;10.00;99.90
25410;DHT22;13339;50.840;4.346;2023-04-25T02:31:22;10.00;99.90
25410;DHT22;13339;50.840;4.346;2023-04-25T02:33:48;10.00;99.90
25410;DHT22;13339;50.840;4.346;2023-04-25T02:36:13;10.10;99.90
25410;DHT22;13339;50.840;4.346;2023-04-25T02:38:40;10.00;99.90
25410;DHT22;13339;50.840;4.346;2023-04-25T02:41:06;10.00;99.90
25410;DHT22;13339;50.840;4.346;2023-04-25T02:43:31;10.10;99.90
25410;DHT22;13339;50.840;4.346;2023-04-25T02:45:57;10.20;99.90
25410;DHT22;13339;50.840;4.346;2023-04-25T02:48:23;10.20;99.90
25410;DHT22;13339;50.840;4.346;2023-04-25T02:50:48;10.30;99.90
25410;DHT22;13339;50.840;4.346;2023-04-25T02:53:14;10.40;99.90
25410;DHT22;13339;50.840;4.346;2023-04-25T02:55:40;10.30;99.90
25410;DHT22;13339;50.840;4.346;2023-04-25T02:58:06;10.40;99.90
25410;DHT22;13339;50.840;4.346;2023-04-25T03:00:31;10.50;99.90
25410;DHT22;13339;50.840;4.346;2023-04-25T03:02:57;10.40;99.90
25410;DHT22;13339;50.840;4.346;2023-04-25T03:05:23;10.40;99.90
25410;DHT22;13339;50.840;4.346;2023-04-25T03:07:48;10.30;99.90
25410;DHT22;13339;50.840;4.346;2023-04-25T03:10:14;10.40;99.90
25410;DHT22;13339;50.840;4.346;2023-04-25T03:12:40;10.50;99.90
25410;DHT22;13339;50.840;4.346;2023-04-25T03:15:06;10.50;99.90
25410;DHT22;13339;50.840;4.346;2023-04-25T03:17:31;10.20;99.90
25410;DHT22;13339;50.840;4.346;2023-04-25T03:19:57;10.10;99.90
25410;DHT22;13339;50.840;4.346;2023-04-25T03:22:23;10.20;99.90
25410;DHT22;13339;50.840;4.346;2023-04-25T03:24:50;10.20;99.90
25410;DHT22;13339;50.840;4.346;2023-04-25T03:27:16;10.00;99.90
25410;DHT22;13339;50.840;4.346;2023-04-25T03:29:42;10.00;99.90
25410;DHT22;13339;50.840;4.346;2023-04-25T03:32:07;10.20;99.90
25410;DHT22;13339;50.840;4.346;2023-04-25T03:34:33;10.10;99.90
25410;DHT22;13339;50.840;4.346;2023-04-25T03:36:59;9.90;99.90
25410;DHT22;13339;50.840;4.346;2023-04-25T03:39:25;9.90;99.90
25410;DHT22;13339;50.840;4.346;2023-04-25T03:41:51;9.70;99.90
25410;DHT22;13339;50.840;4.346;2023-04-25T03:44:16;9.70;99.90
25410;DHT22;13339;50.840;4.346;2023-04-25T03:46:42;9.60;99.90
25410;DHT22;13339;50.840;4.346;2023-04-25T03:49:08;9.60;99.90
25410;DHT22;13339;50.840;4.346;2023-04-25T03:51:34;9.70;99.90
25410;DHT22;13339;50.840;4.346;2023-04-25T03:53:59;9.70;99.90
25410;DHT22;13339;50.840;4.346;2023-04-25T03:56:25;9.90;99.90
25410;DHT22;13339;50.840;4.346;2023-04-25T03:58:51;9.80;99.90
25410;DHT22;13339;50.840;4.346;2023-04-25T04:01:16;9.90;99.90
25410;DHT22;13339;50.840;4.346;2023-04-25T04:03:42;9.90;99.90
25410;DHT22;13339;50.840;4.346;2023-04-25T04:06:08;9.90;99.90
25410;DHT22;13339;50.840;4.346;2023-04-25T04:08:34;9.80;99.90
25410;DHT22;13339;50.840;4.346;2023-04-25T04:11:00;9.90;99.90
25410;DHT22;13339;50.840;4.346;2023-04-25T04:13:27;9.90;99.90
25410;DHT22;13339;50.840;4.346;2023-04-25T04:15:53;10.00;99.90
25410;DHT22;13339;50.840;4.346;2023-04-25T04:18:19;10.10;99.90
25410;DHT22;13339;50.840;4.346;2023-04-25T04:20:45;10.10;99.90
25410;DHT22;13339;50.840;4.346;2023-04-25T04:23:11;9.90;99.90
25410;DHT22;13339;50.840;4.346;2023-04-25T04:25:37;9.90;99.90
25410;DHT22;13339;50.840;4.346;2023-04-25T04:28:02;10.10;99.90
25410;DHT22;13339;50.840;4.346;2023-04-25T04:30:28;10.10;99.90
25410;DHT22;13339;50.840;4.346;2023-04-25T04:32:57;10.10;99.90
25410;DHT22;13339;50.840;4.346;2023-04-25T04:35:23;10.10;99.90
25410;DHT22;13339;50.840;4.346;2023-04-25T04:37:50;10.00;99.90
25410;DHT22;13339;50.840;4.346;2023-04-25T04:40:16;10.00;99.90
25410;DHT22;13339;50.840;4.346;2023-04-25T04:42:43;10.00;99.90
25410;DHT22;13339;50.840;4.346;2023-04-25T04:45:11;9.90;99.90
25410;DHT22;13339;50.840;4.346;2023-04-25T04:47:38;9.80;99.90
25410;DHT22;13339;50.840;4.346;2023-04-25T04:50:06;9.90;99.90
25410;DHT22;13339;50.840;4.346;2023-04-25T04:52:37;9.80;99.90
25410;DHT22;13339;50.840;4.346;2023-04-25T04:55:04;9.80;99.90
25410;DHT22;13339;50.840;4.346;2023-04-25T04:57:29;9.70;99.90
25410;DHT22;13339;50.840;4.346;2023-04-25T04:59:56;9.70;99.90
25410;DHT22;13339;50.840;4.346;2023-04-25T05:02:22;9.70;99.90
25410;DHT22;13339;50.840;4.346;2023-04-25T05:04:47;9.60;99.90
25410;DHT22;13339;50.840;4.346;2023-04-25T05:07:13;9.50;99.90
25410;DHT22;13339;50.840;4.346;2023-04-25T05:09:39;9.60;99.90
25410;DHT22;13339;50.840;4.346;2023-04-25T05:12:05;9.40;99.90
25410;DHT22;13339;50.840;4.346;2023-04-25T05:14:31;9.20;99.90
25410;DHT22;13339;50.840;4.346;2023-04-25T05:16:56;9.30;99.90
25410;DHT22;13339;50.840;4.346;2023-04-25T05:19:22;9.20;99.90
25410;DHT22;13339;50.840;4.346;2023-04-25T05:21:48;9.30;99.90
25410;DHT22;13339;50.840;4.346;2023-04-25T05:24:14;9.30;99.90
25410;DHT22;13339;50.840;4.346;2023-04-25T05:26:40;9.20;99.90
25410;DHT22;13339;50.840;4.346;2023-04-25T05:29:05;8.90;99.90
25410;DHT22;13339;50.840;4.346;2023-04-25T05:31:32;9.00;99.90
25410;DHT22;13339;50.840;4.346;2023-04-25T05:33:57;9.10;99.90
25410;DHT22;13339;50.840;4.346;2023-04-25T05:36:23;9.20;99.90
25410;DHT22;13339;50.840;4.346;2023-04-25T05:38:49;9.30;99.90
25410;DHT22;13339;50.840;4.346;2023-04-25T05:41:14;9.30;99.90
25410;DHT22;13339;50.840;4.346;2023-04-25T05:43:40;9.50;99.90
25410;DHT22;13339;50.840;4.346;2023-04-25T05:46:10;9.60;99.90
25410;DHT22;13339;50.840;4.346;2023-04-25T05:48:37;9.80;99.90
25410;DHT22;13339;50.840;4.346;2023-04-25T05:51:02;9.80;99.90
25410;DHT22;13339;50.840;4.346;2023-04-25T05:53:28;9.70;99.90
25410;DHT22;13339;50.840;4.346;2023-04-25T05:55:54;9.70;99.90
25410;DHT22;13339;50.840;4.346;2023-04-25T05:58:19;9.70;99.90
25410;DHT22;13339;50.840;4.346;2023-04-25T06:00:45;9.60;99.90
25410;DHT22;13339;50.840;4.346;2023-04-25T06:03:11;9.50;99.90
25410;DHT22;13339;50.840;4.346;2023-04-25T06:05:41;9.20;99.90
25410;DHT22;13339;50.840;4.346;2023-04-25T06:08:06;9.30;99.90
25410;DHT22;13339;50.840;4.346;2023-04-25T06:10:32;9.50;99.90
25410;DHT22;13339;50.840;4.346;2023-04-25T06:12:57;9.50;99.90
25410;DHT22;13339;50.840;4.346;2023-04-25T06:15:23;9.70;99.90
25410;DHT22;13339;50.840;4.346;2023-04-25T06:17:48;9.80;99.90
25410;DHT22;13339;50.840;4.346;2023-04-25T06:20:14;10.00;99.90
25410;DHT22;13339;50.840;4.346;2023-04-25T06:22:40;10.00;99.90
25410;DHT22;13339;50.840;4.346;2023-04-25T06:25:06;10.10;99.90
25410;DHT22;13339;50.840;4.346;2023-04-25T06:27:33;10.40;99.90
25410;DHT22;13339;50.840;4.346;2023-04-25T06:29:58;10.40;99.90
25410;DHT22;13339;50.840;4.346;2023-04-25T06:32:24;10.50;99.90
25410;DHT22;13339;50.840;4.346;2023-04-25T06:34:51;10.60;99.90
25410;DHT22;13339;50.840;4.346;2023-04-25T06:37:17;10.60;99.90
25410;DHT22;13339;50.840;4.346;2023-04-25T06:39:42;10.50;99.90
25410;DHT22;13339;50.840;4.346;2023-04-25T06:42:08;10.40;99.90
25410;DHT22;13339;50.840;4.346;2023-04-25T06:44:34;10.50;99.90
25410;DHT22;13339;50.840;4.346;2023-04-25T06:46:59;10.50;99.90
25410;DHT22;13339;50.840;4.346;2023-04-25T06:49:25;10.60;99.90
25410;DHT22;13339;50.840;4.346;2023-04-25T06:51:51;10.60;99.90
25410;DHT22;13339;50.840;4.346;2023-04-25T06:54:16;10.70;99.90
25410;DHT22;13339;50.840;4.346;2023-04-25T06:56:42;10.60;99.90
25410;DHT22;13339;50.840;4.346;2023-04-25T06:59:08;10.40;99.90
25410;DHT22;13339;50.840;4.346;2023-04-25T07:01:34;10.30;99.90
25410;DHT22;13339;50.840;4.346;2023-04-25T07:04:00;10.10;99.90
25410;DHT22;13339;50.840;4.346;2023-04-25T07:06:26;10.10;99.90
25410;DHT22;13339;50.840;4.346;2023-04-25T07:08:53;10.10;99.90
25410;DHT22;13339;50.840;4.346;2023-04-25T07:11:19;10.20;99.90
25410;DHT22;13339;50.840;4.346;2023-04-25T07:13:44;10.20;99.90
25410;DHT22;13339;50.840;4.346;2023-04-25T07:16:10;10.40;99.90
25410;DHT22;13339;50.840;4.346;2023-04-25T07:18:36;10.40;99.90
25410;DHT22;13339;50.840;4.346;2023-04-25T07:21:01;10.20;99.90
25410;DHT22;13339;50.840;4.346;2023-04-25T07:23:27;10.00;99.90
25410;DHT22;13339;50.840;4.346;2023-04-25T07:25:53;9.90;99.90
25410;DHT22;13339;50.840;4.346;2023-04-25T07:28:18;10.20;99.90
25410;DHT22;13339;50.840;4.346;2023-04-25T07:30:44;10.40;99.90
25410;DHT22;13339;50.840;4.346;2023-04-25T07:33:10;10.60;99.90
25410;DHT22;13339;50.840;4.346;2023-04-25T07:35:35;10.90;99.90
25410;DHT22;13339;50.840;4.346;2023-04-25T07:38:02;10.80;99.90
25410;DHT22;13339;50.840;4.346;2023-04-25T07:40:28;10.80;99.90
25410;DHT22;13339;50.840;4.346;2023-04-25T07:42:54;10.90;99.90
25410;DHT22;13339;50.840;4.346;2023-04-25T07:45:19;10.90;99.90
25410;DHT22;13339;50.840;4.346;2023-04-25T07:47:45;11.10;99.90
25410;DHT22;13339;50.840;4.346;2023-04-25T07:50:11;11.10;99.90
25410;DHT22;13339;50.840;4.346;2023-04-25T07:52:37;11.20;99.90
25410;DHT22;13339;50.840;4.346;2023-04-25T07:55:02;11.10;99.90
25410;DHT22;13339;50.840;4.346;2023-04-25T07:57:29;11.10;99.90
25410;DHT22;13339;50.840;4.346;2023-04-25T07:59:54;11.30;99.90
25410;DHT22;13339;50.840;4.346;2023-04-25T08:02:20;11.60;99.90
25410;DHT22;13339;50.840;4.346;2023-04-25T08:04:45;11.50;99.90
25410;DHT22;13339;50.840;4.346;2023-04-25T08:07:11;11.60;99.90
25410;DHT22;13339;50.840;4.346;2023-04-25T08:09:37;11.50;99.90
25410;DHT22;13339;50.840;4.346;2023-04-25T08:12:03;11.60;99.90
25410;DHT22;13339;50.840;4.346;2023-04-25T08:14:30;11.70;99.90
25410;DHT22;13339;50.840;4.346;2023-04-25T08:17:01;11.80;99.90
25410;DHT22;13339;50.840;4.346;2023-04-25T08:19:27;11.90;99.90
25410;DHT22;13339;50.840;4.346;2023-04-25T08:21:52;11.90;99.90
25410;DHT22;13339;50.840;4.346;2023-04-25T08:24:18;12.00;99.90
25410;DHT22;13339;50.840;4.346;2023-04-25T08:26:44;12.10;99.90
25410;DHT22;13339;50.840;4.346;2023-04-25T08:29:09;12.20;99.90
25410;DHT22;13339;50.840;4.346;2023-04-25T08:31:35;11.90;99.90
25410;DHT22;13339;50.840;4.346;2023-04-25T08:34:00;11.70;99.90
25410;DHT22;13339;50.840;4.346;2023-04-25T08:36:26;11.80;99.90
25410;DHT22;13339;50.840;4.346;2023-04-25T08:38:53;12.00;99.90
25410;DHT22;13339;50.840;4.346;2023-04-25T08:41:19;12.00;99.90
25410;DHT22;13339;50.840;4.346;2023-04-25T08:43:48;12.10;99.90
25410;DHT22;13339;50.840;4.346;2023-04-25T08:46:17;12.00;99.90
25410;DHT22;13339;50.840;4.346;2023-04-25T08:48:45;12.00;99.90
25410;DHT22;13339;50.840;4.346;2023-04-25T08:51:22;11.70;99.90
25410;DHT22;13339;50.840;4.346;2023-04-25T08:53:51;11.30;99.90
25410;DHT22;13339;50.840;4.346;2023-04-25T08:56:18;11.50;99.90
25410;DHT22;13339;50.840;4.346;2023-04-25T08:58:48;11.70;99.90
25410;DHT22;13339;50.840;4.346;2023-04-25T09:01:14;12.00;99.90
25410;DHT22;13339;50.840;4.346;2023-04-25T09:03:40;12.10;99.90
25410;DHT22;13339;50.840;4.346;2023-04-25T09:06:06;12.20;99.90
25410;DHT22;13339;50.840;4.346;2023-04-25T09:08:32;12.10;99.90
25410;DHT22;13339;50.840;4.346;2023-04-25T09:10:58;12.10;99.90
25410;DHT22;13339;50.840;4.346;2023-04-25T09:13:25;12.00;99.90
25410;DHT22;13339;50.840;4.346;2023-04-25T09:15:57;12.10;99.90
25410;DHT22;13339;50.840;4.346;2023-04-25T09:18:30;11.90;99.90
25410;DHT22;13339;50.840;4.346;2023-04-25T09:20:58;11.80;99.90
25410;DHT22;13339;50.840;4.346;2023-04-25T09:23:29;11.50;99.90
25410;DHT22;13339;50.840;4.346;2023-04-25T09:25:55;11.50;99.90
25410;DHT22;13339;50.840;4.346;2023-04-25T09:28:25;11.40;99.90
25410;DHT22;13339;50.840;4.346;2023-04-25T09:30:57;11.60;99.90
25410;DHT22;13339;50.840;4.346;2023-04-25T09:33:31;11.70;99.90
25410;DHT22;13339;50.840;4.346;2023-04-25T09:36:08;11.70;99.90
25410;DHT22;13339;50.840;4.346;2023-04-25T09:38:42;11.60;99.90
25410;DHT22;13339;50.840;4.346;2023-04-25T09:41:08;11.50;99.90
25410;DHT22;13339;50.840;4.346;2023-04-25T09:43:35;11.50;99.90
25410;DHT22;13339;50.840;4.346;2023-04-25T09:46:01;11.60;99.90
25410;DHT22;13339;50.840;4.346;2023-04-25T09:48:28;11.50;99.90
25410;DHT22;13339;50.840;4.346;2023-04-25T09:53:39;11.40;99.90
25410;DHT22;13339;50.840;4.346;2023-04-25T09:56:08;11.40;99.90
25410;DHT22;13339;50.840;4.346;2023-04-25T09:58:35;11.60;99.90
25410;DHT22;13339;50.840;4.346;2023-04-25T10:01:06;11.80;99.90
25410;DHT22;13339;50.840;4.346;2023-04-25T10:03:35;11.90;99.90
25410;DHT22;13339;50.840;4.346;2023-04-25T10:06:03;11.90;99.90
25410;DHT22;13339;50.840;4.346;2023-04-25T10:08:37;11.70;99.90
25410;DHT22;13339;50.840;4.346;2023-04-25T10:11:06;11.80;99.90
25410;DHT22;13339;50.840;4.346;2023-04-25T10:13:34;12.10;99.90
25410;DHT22;13339;50.840;4.346;2023-04-25T10:16:01;12.30;99.90
25410;DHT22;13339;50.840;4.346;2023-04-25T10:18:28;12.30;99.90
25410;DHT22;13339;50.840;4.346;2023-04-25T10:20:59;12.30;99.90
25410;DHT22;13339;50.840;4.346;2023-04-25T10:23:26;12.20;99.90
25410;DHT22;13339;50.840;4.346;2023-04-25T10:25:53;12.10;99.90
25410;DHT22;13339;50.840;4.346;2023-04-25T10:28:19;12.40;99.90
25410;DHT22;13339;50.840;4.346;2023-04-25T10:31:01;12.70;99.90
25410;DHT22;13339;50.840;4.346;2023-04-25T10:33:33;12.90;99.90
25410;DHT22;13339;50.840;4.346;2023-04-25T10:36:09;13.20;99.90
25410;DHT22;13339;50.840;4.346;2023-04-25T10:38:36;13.50;99.90
25410;DHT22;13339;50.840;4.346;2023-04-25T10:41:12;13.70;99.90
25410;DHT22;13339;50.840;4.346;2023-04-25T10:43:40;13.60;99.90
25410;DHT22;13339;50.840;4.346;2023-04-25T10:48:49;12.90;99.90
25410;DHT22;13339;50.840;4.346;2023-04-25T10:53:46;13.20;99.90
25410;DHT22;13339;50.840;4.346;2023-04-25T10:56:19;13.20;99.90
25410;DHT22;13339;50.840;4.346;2023-04-25T10:58:48;12.90;99.90
25410;DHT22;13339;50.840;4.346;2023-04-25T11:01:15;12.50;99.90
25410;DHT22;13339;50.840;4.346;2023-04-25T11:03:44;12.40;99.90
25410;DHT22;13339;50.840;4.346;2023-04-25T11:08:50;12.40;99.90
25410;DHT22;13339;50.840;4.346;2023-04-25T11:11:17;12.30;99.90
25410;DHT22;13339;50.840;4.346;2023-04-25T11:13:43;12.20;99.90
25410;DHT22;13339;50.840;4.346;2023-04-25T11:16:09;12.20;99.90
25410;DHT22;13339;50.840;4.346;2023-04-25T11:18:35;12.00;99.90
25410;DHT22;13339;50.840;4.346;2023-04-25T11:21:02;12.00;99.90
25410;DHT22;13339;50.840;4.346;2023-04-25T11:23:30;12.00;99.90
25410;DHT22;13339;50.840;4.346;2023-04-25T11:25:55;11.70;99.90
25410;DHT22;13339;50.840;4.346;2023-04-25T11:28:22;11.80;99.90
25410;DHT22;13339;50.840;4.346;2023-04-25T11:30:49;11.90;99.90
25410;DHT22;13339;50.840;4.346;2023-04-25T11:33:16;11.90;99.90
25410;DHT22;13339;50.840;4.346;2023-04-25T11:35:42;12.00;99.90
25410;DHT22;13339;50.840;4.346;2023-04-25T11:38:08;12.10;99.90
25410;DHT22;13339;50.840;4.346;2023-04-25T11:40:35;12.10;99.90
25410;DHT22;13339;50.840;4.346;2023-04-25T11:43:01;12.20;99.90
25410;DHT22;13339;50.840;4.346;2023-04-25T11:45:27;12.30;99.90
25410;DHT22;13339;50.840;4.346;2023-04-25T11:47:54;12.30;99.90
25410;DHT22;13339;50.840;4.346;2023-04-25T11:50:20;12.10;99.90
25410;DHT22;13339;50.840;4.346;2023-04-25T11:52:47;12.10;99.90
25410;DHT22;13339;50.840;4.346;2023-04-25T11:55:14;12.30;99.90
25410;DHT22;13339;50.840;4.346;2023-04-25T11:57:41;12.50;99.90
25410;DHT22;13339;50.840;4.346;2023-04-25T12:00:15;12.80;99.90
25410;DHT22;13339;50.840;4.346;2023-04-25T12:02:52;13.30;99.90
25410;DHT22;13339;50.840;4.346;2023-04-25T12:05:18;13.40;99.90
25410;DHT22;13339;50.840;4.346;2023-04-25T12:07:45;13.50;99.90
25410;DHT22;13339;50.840;4.346;2023-04-25T12:10:14;13.40;99.90
25410;DHT22;13339;50.840;4.346;2023-04-25T12:12:44;12.90;99.90
25410;DHT22;13339;50.840;4.346;2023-04-25T12:15:27;12.50;99.90
25410;DHT22;13339;50.840;4.346;2023-04-25T12:17:53;12.50;99.90
25410;DHT22;13339;50.840;4.346;2023-04-25T12:20:23;12.70;99.90
25410;DHT22;13339;50.840;4.346;2023-04-25T12:22:50;12.90;99.90
25410;DHT22;13339;50.840;4.346;2023-04-25T12:28:19;13.50;99.90
25410;DHT22;13339;50.840;4.346;2023-04-25T12:33:20;13.50;99.90
25410;DHT22;13339;50.840;4.346;2023-04-25T12:35:47;13.10;99.90
25410;DHT22;13339;50.840;4.346;2023-04-25T12:38:21;13.00;99.90
25410;DHT22;13339;50.840;4.346;2023-04-25T12:40:47;12.90;99.90
25410;DHT22;13339;50.840;4.346;2023-04-25T12:43:12;12.90;99.90
25410;DHT22;13339;50.840;4.346;2023-04-25T12:45:38;13.20;99.90
25410;DHT22;13339;50.840;4.346;2023-04-25T12:48:04;13.30;99.90
25410;DHT22;13339;50.840;4.346;2023-04-25T12:50:29;13.30;99.90
25410;DHT22;13339;50.840;4.346;2023-04-25T12:52:55;13.60;99.90
25410;DHT22;13339;50.840;4.346;2023-04-25T12:55:21;13.90;99.90
25410;DHT22;13339;50.840;4.346;2023-04-25T12:57:47;14.10;99.90
25410;DHT22;13339;50.840;4.346;2023-04-25T13:00:13;14.20;99.90
25410;DHT22;13339;50.840;4.346;2023-04-25T13:02:40;13.80;99.90
25410;DHT22;13339;50.840;4.346;2023-04-25T13:05:06;13.20;99.90
25410;DHT22;13339;50.840;4.346;2023-04-25T13:07:32;13.00;99.90
25410;DHT22;13339;50.840;4.346;2023-04-25T13:09:57;12.70;99.90
25410;DHT22;13339;50.840;4.346;2023-04-25T13:12:24;12.70;99.90
25410;DHT22;13339;50.840;4.346;2023-04-25T13:14:49;12.90;99.90
25410;DHT22;13339;50.840;4.346;2023-04-25T13:17:15;13.10;99.90
25410;DHT22;13339;50.840;4.346;2023-04-25T13:19:41;13.20;99.90
25410;DHT22;13339;50.840;4.346;2023-04-25T13:22:06;13.20;99.90
25410;DHT22;13339;50.840;4.346;2023-04-25T13:24:32;13.00;99.90
25410;DHT22;13339;50.840;4.346;2023-04-25T13:26:58;12.70;99.90
25410;DHT22;13339;50.840;4.346;2023-04-25T13:29:24;12.70;99.90
25410;DHT22;13339;50.840;4.346;2023-04-25T13:31:49;12.60;99.90
25410;DHT22;13339;50.840;4.346;2023-04-25T13:34:15;12.80;99.90
25410;DHT22;13339;50.840;4.346;2023-04-25T13:36:41;12.90;99.90
25410;DHT22;13339;50.840;4.346;2023-04-25T13:39:06;13.00;99.90
25410;DHT22;13339;50.840;4.346;2023-04-25T13:41:32;13.30;99.90
25410;DHT22;13339;50.840;4.346;2023-04-25T13:43:58;13.50;99.90
25410;DHT22;13339;50.840;4.346;2023-04-25T13:46:23;13.70;99.90
25410;DHT22;13339;50.840;4.346;2023-04-25T13:48:49;13.90;99.90
25410;DHT22;13339;50.840;4.346;2023-04-25T13:51:15;14.10;99.90
25410;DHT22;13339;50.840;4.346;2023-04-25T13:53:42;14.30;99.90
25410;DHT22;13339;50.840;4.346;2023-04-25T13:56:08;14.20;99.90
25410;DHT22;13339;50.840;4.346;2023-04-25T13:58:34;14.10;99.90
25410;DHT22;13339;50.840;4.346;2023-04-25T14:00:59;13.70;99.90
25410;DHT22;13339;50.840;4.346;2023-04-25T14:03:25;13.00;99.90
25410;DHT22;13339;50.840;4.346;2023-04-25T14:05:51;13.00;99.90
25410;DHT22;13339;50.840;4.346;2023-04-25T14:08:16;13.00;99.90
25410;DHT22;13339;50.840;4.346;2023-04-25T14:10:42;12.80;99.90
25410;DHT22;13339;50.840;4.346;2023-04-25T14:13:08;12.80;99.90
25410;DHT22;13339;50.840;4.346;2023-04-25T14:15:34;12.80;99.90
25410;DHT22;13339;50.840;4.346;2023-04-25T14:18:00;12.70;99.90
25410;DHT22;13339;50.840;4.346;2023-04-25T14:20:26;12.80;99.90
25410;DHT22;13339;50.840;4.346;2023-04-25T14:22:52;12.90;99.90
25410;DHT22;13339;50.840;4.346;2023-04-25T14:25:20;13.00;99.90
25410;DHT22;13339;50.840;4.346;2023-04-25T14:27:45;13.30;99.90
25410;DHT22;13339;50.840;4.346;2023-04-25T14:30:15;13.50;99.90
25410;DHT22;13339;50.840;4.346;2023-04-25T14:32:41;13.60;99.90
25410;DHT22;13339;50.840;4.346;2023-04-25T14:35:07;13.50;99.90
25410;DHT22;13339;50.840;4.346;2023-04-25T14:37:33;13.50;99.90
25410;DHT22;13339;50.840;4.346;2023-04-25T14:39:58;13.70;99.90
25410;DHT22;13339;50.840;4.346;2023-04-25T14:42:24;13.90;99.90
25410;DHT22;13339;50.840;4.346;2023-04-25T14:44:50;14.10;99.90
25410;DHT22;13339;50.840;4.346;2023-04-25T14:47:16;14.30;99.90
25410;DHT22;13339;50.840;4.346;2023-04-25T14:49:42;14.30;99.90
25410;DHT22;13339;50.840;4.346;2023-04-25T14:52:07;14.20;99.90
25410;DHT22;13339;50.840;4.346;2023-04-25T14:54:33;14.30;99.90
25410;DHT22;13339;50.840;4.346;2023-04-25T14:56:59;14.30;99.90
25410;DHT22;13339;50.840;4.346;2023-04-25T14:59:26;13.90;99.90
25410;DHT22;13339;50.840;4.346;2023-04-25T15:01:52;13.60;99.90
25410;DHT22;13339;50.840;4.346;2023-04-25T15:04:18;13.40;99.90
25410;DHT22;13339;50.840;4.346;2023-04-25T15:06:44;13.20;99.90
25410;DHT22;13339;50.840;4.346;2023-04-25T15:09:09;13.30;99.90
25410;DHT22;13339;50.840;4.346;2023-04-25T15:11:36;13.30;99.90
25410;DHT22;13339;50.840;4.346;2023-04-25T15:14:02;13.40;99.90
25410;DHT22;13339;50.840;4.346;2023-04-25T15:16:28;13.50;99.90
25410;DHT22;13339;50.840;4.346;2023-04-25T15:18:53;13.60;99.90
25410;DHT22;13339;50.840;4.346;2023-04-25T15:21:19;13.80;99.90
25410;DHT22;13339;50.840;4.346;2023-04-25T15:23:45;13.50;99.90
25410;DHT22;13339;50.840;4.346;2023-04-25T15:26:11;13.20;99.90
25410;DHT22;13339;50.840;4.346;2023-04-25T15:28:37;13.10;99.90
25410;DHT22;13339;50.840;4.346;2023-04-25T15:31:03;12.90;99.90
25410;DHT22;13339;50.840;4.346;2023-04-25T15:33:28;12.90;99.90
25410;DHT22;13339;50.840;4.346;2023-04-25T15:35:54;12.80;99.90
25410;DHT22;13339;50.840;4.346;2023-04-25T15:38:20;12.80;99.90
25410;DHT22;13339;50.840;4.346;2023-04-25T15:40:45;12.80;99.90
25410;DHT22;13339;50.840;4.346;2023-04-25T15:43:12;13.10;99.90